sensor_id;sensor_type;location;lat;lon;timestamp;temperature;humidity
23755;DHT22;12057;52.042;6.830;2022-09-03T00:00:16;17.80;78.90
23755;DHT22;12057;52.042;6.830;2022-09-03T00:05:34;17.80;78.60
23755;DHT22;12057;52.042;6.830;2022-09-03T00:10:44;17.70;77.90
23755;DHT22;12057;52.042;6.830;2022-09-03T00:15:47;17.70;78.50
23755;DHT22;12057;52.042;6.830;2022-09-03T00:20:51;17.60;78.80
23755;DHT22;12057;52.042;6.830;2022-09-03T00:31:17;17.50;78.80
23755;DHT22;12057;52.042;6.830;2022-09-03T00:36:20;17.50;79.30
23755;DHT22;12057;52.042;6.830;2022-09-03T00:41:24;17.40;79.30
23755;DHT22;12057;52.042;6.830;2022-09-03T00:46:34;17.30;79.70
23755;DHT22;12057;52.042;6.830;2022-09-03T02:04:29;16.50;84.50
23755;DHT22;12057;52.042;6.830;2022-09-03T02:09:31;16.40;84.40
23755;DHT22;12057;52.042;6.830;2022-09-03T02:14:31;16.30;85.30
23755;DHT22;12057;52.042;6.830;2022-09-03T02:19:32;16.20;86.20
23755;DHT22;12057;52.042;6.830;2022-09-03T02:24:33;16.20;85.80
23755;DHT22;12057;52.042;6.830;2022-09-03T02:29:34;16.10;86.30
23755;DHT22;12057;52.042;6.830;2022-09-03T02:34:35;16.00;87.00
23755;DHT22;12057;52.042;6.830;2022-09-03T02:39:35;15.90;87.20
23755;DHT22;12057;52.042;6.830;2022-09-03T02:44:43;15.80;88.00
23755;DHT22;12057;52.042;6.830;2022-09-03T02:49:46;15.70;88.40
23755;DHT22;12057;52.042;6.830;2022-09-03T02:54:47;15.60;88.70
23755;DHT22;12057;52.042;6.830;2022-09-03T02:59:48;15.40;88.90
23755;DHT22;12057;52.042;6.830;2022-09-03T03:04:48;15.30;90.00
23755;DHT22;12057;52.042;6.830;2022-09-03T03:09:49;15.30;90.30
23755;DHT22;12057;52.042;6.830;2022-09-03T03:14:50;15.30;90.60
23755;DHT22;12057;52.042;6.830;2022-09-03T03:19:50;15.20;90.70
23755;DHT22;12057;52.042;6.830;2022-09-03T03:24:51;15.00;91.00
23755;DHT22;12057;52.042;6.830;2022-09-03T03:29:52;15.00;91.20
23755;DHT22;12057;52.042;6.830;2022-09-03T03:34:54;14.90;91.40
23755;DHT22;12057;52.042;6.830;2022-09-03T03:39:54;14.80;91.70
23755;DHT22;12057;52.042;6.830;2022-09-03T03:44:55;14.70;92.00
23755;DHT22;12057;52.042;6.830;2022-09-03T03:49:57;14.60;91.90
23755;DHT22;12057;52.042;6.830;2022-09-03T03:54:57;14.60;92.60
23755;DHT22;12057;52.042;6.830;2022-09-03T03:59:58;14.50;92.30
23755;DHT22;12057;52.042;6.830;2022-09-03T04:04:59;14.50;92.50
23755;DHT22;12057;52.042;6.830;2022-09-03T04:09:59;14.40;92.80
23755;DHT22;12057;52.042;6.830;2022-09-03T04:15:00;14.30;92.60
23755;DHT22;12057;52.042;6.830;2022-09-03T04:20:00;14.30;93.30
23755;DHT22;12057;52.042;6.830;2022-09-03T04:25:01;14.20;93.10
23755;DHT22;12057;52.042;6.830;2022-09-03T04:30:02;14.20;93.40
23755;DHT22;12057;52.042;6.830;2022-09-03T04:35:03;14.10;93.70
23755;DHT22;12057;52.042;6.830;2022-09-03T04:40:03;14.10;93.60
23755;DHT22;12057;52.042;6.830;2022-09-03T04:45:04;14.10;93.90
23755;DHT22;12057;52.042;6.830;2022-09-03T04:50:05;14.00;93.90
23755;DHT22;12057;52.042;6.830;2022-09-03T04:55:06;14.00;94.10
23755;DHT22;12057;52.042;6.830;2022-09-03T05:00:07;14.00;94.40
23755;DHT22;12057;52.042;6.830;2022-09-03T05:05:10;13.90;94.40
23755;DHT22;12057;52.042;6.830;2022-09-03T05:10:12;13.90;94.50
23755;DHT22;12057;52.042;6.830;2022-09-03T05:15:19;13.90;94.40
23755;DHT22;12057;52.042;6.830;2022-09-03T05:20:20;13.90;94.70
23755;DHT22;12057;52.042;6.830;2022-09-03T05:25:20;13.90;94.50
23755;DHT22;12057;52.042;6.830;2022-09-03T05:30:22;13.90;94.80
23755;DHT22;12057;52.042;6.830;2022-09-03T05:35:22;13.90;95.00
23755;DHT22;12057;52.042;6.830;2022-09-03T05:40:23;13.90;95.10
23755;DHT22;12057;52.042;6.830;2022-09-03T05:45:24;13.90;94.90
23755;DHT22;12057;52.042;6.830;2022-09-03T05:50:24;14.00;95.10
23755;DHT22;12057;52.042;6.830;2022-09-03T05:55:25;14.00;95.40
23755;DHT22;12057;52.042;6.830;2022-09-03T06:00:28;14.10;95.10
23755;DHT22;12057;52.042;6.830;2022-09-03T06:05:28;14.20;95.40
23755;DHT22;12057;52.042;6.830;2022-09-03T06:10:29;14.40;94.90
23755;DHT22;12057;52.042;6.830;2022-09-03T06:15:30;14.70;95.00
23755;DHT22;12057;52.042;6.830;2022-09-03T06:20:34;14.90;94.80
23755;DHT22;12057;52.042;6.830;2022-09-03T06:25:34;15.20;94.30
23755;DHT22;12057;52.042;6.830;2022-09-03T06:30:35;15.50;93.90
23755;DHT22;12057;52.042;6.830;2022-09-03T06:35:36;15.80;93.90
23755;DHT22;12057;52.042;6.830;2022-09-03T06:40:37;16.00;93.80
23755;DHT22;12057;52.042;6.830;2022-09-03T06:45:38;16.50;92.50
23755;DHT22;12057;52.042;6.830;2022-09-03T06:50:38;16.90;92.50
23755;DHT22;12057;52.042;6.830;2022-09-03T06:55:39;17.20;92.10
23755;DHT22;12057;52.042;6.830;2022-09-03T07:00:39;17.50;91.40
23755;DHT22;12057;52.042;6.830;2022-09-03T07:05:40;17.90;91.10
23755;DHT22;12057;52.042;6.830;2022-09-03T07:10:46;18.20;90.50
23755;DHT22;12057;52.042;6.830;2022-09-03T07:15:47;18.60;90.20
23755;DHT22;12057;52.042;6.830;2022-09-03T07:20:48;18.90;90.50
23755;DHT22;12057;52.042;6.830;2022-09-03T07:25:58;19.20;87.50
23755;DHT22;12057;52.042;6.830;2022-09-03T07:31:04;19.60;86.40
23755;DHT22;12057;52.042;6.830;2022-09-03T07:36:06;19.80;84.90
23755;DHT22;12057;52.042;6.830;2022-09-03T07:41:07;20.20;83.00
23755;DHT22;12057;52.042;6.830;2022-09-03T07:46:09;20.30;83.80
23755;DHT22;12057;52.042;6.830;2022-09-03T07:51:12;20.70;83.30
23755;DHT22;12057;52.042;6.830;2022-09-03T07:56:13;20.90;81.30
23755;DHT22;12057;52.042;6.830;2022-09-03T08:01:16;21.10;79.60
23755;DHT22;12057;52.042;6.830;2022-09-03T08:06:17;21.40;80.70
23755;DHT22;12057;52.042;6.830;2022-09-03T08:11:19;21.60;79.80
23755;DHT22;12057;52.042;6.830;2022-09-03T08:16:21;21.80;77.70
23755;DHT22;12057;52.042;6.830;2022-09-03T08:21:22;22.00;78.80
23755;DHT22;12057;52.042;6.830;2022-09-03T08:26:23;22.10;77.80
23755;DHT22;12057;52.042;6.830;2022-09-03T08:31:23;22.50;76.20
23755;DHT22;12057;52.042;6.830;2022-09-03T08:36:28;22.70;75.80
23755;DHT22;12057;52.042;6.830;2022-09-03T08:41:35;22.70;75.80
23755;DHT22;12057;52.042;6.830;2022-09-03T08:51:39;23.30;72.90
23755;DHT22;12057;52.042;6.830;2022-09-03T08:56:40;23.50;73.90
23755;DHT22;12057;52.042;6.830;2022-09-03T09:06:54;24.00;71.80
23755;DHT22;12057;52.042;6.830;2022-09-03T09:27:28;24.20;70.20
23755;DHT22;12057;52.042;6.830;2022-09-03T09:32:29;24.40;71.20
23755;DHT22;12057;52.042;6.830;2022-09-03T09:37:30;24.70;69.50
23755;DHT22;12057;52.042;6.830;2022-09-03T09:42:31;25.00;70.40
23755;DHT22;12057;52.042;6.830;2022-09-03T09:47:34;25.10;68.00
23755;DHT22;12057;52.042;6.830;2022-09-03T09:52:37;25.40;66.40
23755;DHT22;12057;52.042;6.830;2022-09-03T09:57:38;25.60;67.00
23755;DHT22;12057;52.042;6.830;2022-09-03T10:02:40;25.70;66.30
23755;DHT22;12057;52.042;6.830;2022-09-03T10:07:59;25.80;65.60
23755;DHT22;12057;52.042;6.830;2022-09-03T10:13:05;25.80;67.70
23755;DHT22;12057;52.042;6.830;2022-09-03T10:23:14;25.80;64.20
23755;DHT22;12057;52.042;6.830;2022-09-03T10:28:17;26.20;64.60
23755;DHT22;12057;52.042;6.830;2022-09-03T10:33:21;26.20;64.50
23755;DHT22;12057;52.042;6.830;2022-09-03T10:38:32;26.30;63.80
23755;DHT22;12057;52.042;6.830;2022-09-03T10:54:17;26.70;61.70
23755;DHT22;12057;52.042;6.830;2022-09-03T11:15:02;27.10;61.10
23755;DHT22;12057;52.042;6.830;2022-09-03T11:20:13;27.10;60.40
23755;DHT22;12057;52.042;6.830;2022-09-03T11:25:17;27.20;62.40
23755;DHT22;12057;52.042;6.830;2022-09-03T11:30:23;27.50;61.80
23755;DHT22;12057;52.042;6.830;2022-09-03T11:35:27;27.70;61.80
23755;DHT22;12057;52.042;6.830;2022-09-03T11:40:31;28.00;60.70
23755;DHT22;12057;52.042;6.830;2022-09-03T11:45:34;27.60;60.10
23755;DHT22;12057;52.042;6.830;2022-09-03T11:50:35;27.50;61.00
23755;DHT22;12057;52.042;6.830;2022-09-03T12:00:45;27.70;59.60
23755;DHT22;12057;52.042;6.830;2022-09-03T12:21:39;28.10;59.00
23755;DHT22;12057;52.042;6.830;2022-09-03T12:26:40;27.90;59.10
23755;DHT22;12057;52.042;6.830;2022-09-03T12:31:43;27.70;59.30
23755;DHT22;12057;52.042;6.830;2022-09-03T12:36:53;28.20;59.50
23755;DHT22;12057;52.042;6.830;2022-09-03T12:41:57;28.30;58.70
23755;DHT22;12057;52.042;6.830;2022-09-03T12:47:14;28.40;59.30
23755;DHT22;12057;52.042;6.830;2022-09-03T12:57:19;28.00;59.20
23755;DHT22;12057;52.042;6.830;2022-09-03T13:02:29;28.10;58.70
23755;DHT22;12057;52.042;6.830;2022-09-03T13:07:35;28.20;59.00
23755;DHT22;12057;52.042;6.830;2022-09-03T13:12:42;28.10;59.40
23755;DHT22;12057;52.042;6.830;2022-09-03T13:18:05;28.10;59.30
23755;DHT22;12057;52.042;6.830;2022-09-03T13:23:15;28.70;60.40
23755;DHT22;12057;52.042;6.830;2022-09-03T13:33:22;28.60;58.90
23755;DHT22;12057;52.042;6.830;2022-09-03T13:38:29;28.50;59.00
23755;DHT22;12057;52.042;6.830;2022-09-03T13:48:36;28.30;58.00
23755;DHT22;12057;52.042;6.830;2022-09-03T13:54:43;28.30;58.80
23755;DHT22;12057;52.042;6.830;2022-09-03T13:59:27;28.60;58.30
23755;DHT22;12057;52.042;6.830;2022-09-03T14:05:13;28.70;57.30
23755;DHT22;12057;52.042;6.830;2022-09-03T14:20:28;28.40;58.50
23755;DHT22;12057;52.042;6.830;2022-09-03T14:25:30;27.90;58.80
23755;DHT22;12057;52.042;6.830;2022-09-03T14:35:50;28.00;57.70
23755;DHT22;12057;52.042;6.830;2022-09-03T14:46:39;28.00;59.40
23755;DHT22;12057;52.042;6.830;2022-09-03T14:56:45;27.80;58.90
23755;DHT22;12057;52.042;6.830;2022-09-03T15:02:35;27.90;61.20
23755;DHT22;12057;52.042;6.830;2022-09-03T15:33:03;27.60;61.50
23755;DHT22;12057;52.042;6.830;2022-09-03T15:38:54;27.50;60.60
23755;DHT22;12057;52.042;6.830;2022-09-03T15:48:50;27.30;60.60
23755;DHT22;12057;52.042;6.830;2022-09-03T15:59:24;27.00;61.40
23755;DHT22;12057;52.042;6.830;2022-09-03T16:14:59;26.50;62.40
23755;DHT22;12057;52.042;6.830;2022-09-03T16:20:03;26.50;62.90
23755;DHT22;12057;52.042;6.830;2022-09-03T16:25:13;26.40;63.20
23755;DHT22;12057;52.042;6.830;2022-09-03T16:30:21;26.30;64.10
23755;DHT22;12057;52.042;6.830;2022-09-03T16:45:34;26.20;65.20
23755;DHT22;12057;52.042;6.830;2022-09-03T17:11:11;25.70;67.90
23755;DHT22;12057;52.042;6.830;2022-09-03T17:37:27;25.20;70.30
23755;DHT22;12057;52.042;6.830;2022-09-03T17:52:49;24.70;72.00
23755;DHT22;12057;52.042;6.830;2022-09-03T17:57:58;24.60;73.20
23755;DHT22;12057;52.042;6.830;2022-09-03T18:03:04;24.40;73.30
23755;DHT22;12057;52.042;6.830;2022-09-03T18:08:11;24.30;73.60
23755;DHT22;12057;52.042;6.830;2022-09-03T18:18:30;24.10;74.30
23755;DHT22;12057;52.042;6.830;2022-09-03T18:23:33;24.00;74.80
23755;DHT22;12057;52.042;6.830;2022-09-03T18:34:18;23.70;75.40
23755;DHT22;12057;52.042;6.830;2022-09-03T18:39:38;23.60;75.60
23755;DHT22;12057;52.042;6.830;2022-09-03T18:45:00;23.40;75.40
23755;DHT22;12057;52.042;6.830;2022-09-03T19:01:37;23.00;76.00
23755;DHT22;12057;52.042;6.830;2022-09-03T19:07:01;22.80;76.80
23755;DHT22;12057;52.042;6.830;2022-09-03T19:12:26;22.70;77.00
23755;DHT22;12057;52.042;6.830;2022-09-03T19:18:33;22.50;76.90
23755;DHT22;12057;52.042;6.830;2022-09-03T19:23:32;22.40;77.30
23755;DHT22;12057;52.042;6.830;2022-09-03T19:28:52;22.30;77.70
23755;DHT22;12057;52.042;6.830;2022-09-03T19:45:23;22.00;78.20
23755;DHT22;12057;52.042;6.830;2022-09-03T19:50:46;21.90;78.30
23755;DHT22;12057;52.042;6.830;2022-09-03T19:56:13;21.80;78.50
23755;DHT22;12057;52.042;6.830;2022-09-03T20:01:34;21.70;79.20
23755;DHT22;12057;52.042;6.830;2022-09-03T20:06:53;21.60;79.50
23755;DHT22;12057;52.042;6.830;2022-09-03T20:12:12;21.60;79.30
23755;DHT22;12057;52.042;6.830;2022-09-03T20:23:03;21.40;80.40
23755;DHT22;12057;52.042;6.830;2022-09-03T20:32:53;21.20;82.10
23755;DHT22;12057;52.042;6.830;2022-09-03T20:38:00;21.10;82.40
23755;DHT22;12057;52.042;6.830;2022-09-03T20:53:22;20.80;84.60
23755;DHT22;12057;52.042;6.830;2022-09-03T20:58:30;20.70;84.10
23755;DHT22;12057;52.042;6.830;2022-09-03T21:03:49;20.70;84.50
23755;DHT22;12057;52.042;6.830;2022-09-03T21:09:04;20.50;84.80
23755;DHT22;12057;52.042;6.830;2022-09-03T21:14:11;20.50;85.20
23755;DHT22;12057;52.042;6.830;2022-09-03T21:19:40;20.40;86.40
23755;DHT22;12057;52.042;6.830;2022-09-03T21:24:45;20.30;85.70
23755;DHT22;12057;52.042;6.830;2022-09-03T21:30:06;20.20;86.00
23755;DHT22;12057;52.042;6.830;2022-09-03T21:35:09;20.10;87.20
23755;DHT22;12057;52.042;6.830;2022-09-03T21:40:12;20.10;87.50
23755;DHT22;12057;52.042;6.830;2022-09-03T21:50:27;19.90;88.20
23755;DHT22;12057;52.042;6.830;2022-09-03T22:00:59;19.70;89.10
23755;DHT22;12057;52.042;6.830;2022-09-03T22:06:05;19.60;89.20
23755;DHT22;12057;52.042;6.830;2022-09-03T22:11:14;19.60;90.00
23755;DHT22;12057;52.042;6.830;2022-09-03T22:16:24;19.40;90.10
23755;DHT22;12057;52.042;6.830;2022-09-03T22:26:42;19.30;90.90
23755;DHT22;12057;52.042;6.830;2022-09-03T22:37:01;19.10;91.30
23755;DHT22;12057;52.042;6.830;2022-09-03T22:47:17;18.90;91.60
23755;DHT22;12057;52.042;6.830;2022-09-03T22:57:24;18.70;92.20
23755;DHT22;12057;52.042;6.830;2022-09-03T23:02:26;18.60;92.30
23755;DHT22;12057;52.042;6.830;2022-09-03T23:12:41;18.40;92.80
23755;DHT22;12057;52.042;6.830;2022-09-03T23:17:50;18.40;93.40
23755;DHT22;12057;52.042;6.830;2022-09-03T23:23:04;18.30;93.60
23755;DHT22;12057;52.042;6.830;2022-09-03T23:28:17;18.20;93.50
23755;DHT22;12057;52.042;6.830;2022-09-03T23:33:21;18.10;94.20
23755;DHT22;12057;52.042;6.830;2022-09-03T23:38:26;18.10;94.50
